createdAt,value
2022-12-17T00:01:54.313Z,95644.28
2022-12-17T00:04:40.050Z,95649.03
2022-12-17T00:07:25.747Z,95656.19
2022-12-17T00:10:11.470Z,95661.34
2022-12-17T00:12:57.319Z,95670.50
2022-12-17T00:15:43.521Z,95668.09
2022-12-17T00:18:30.973Z,95668.28
2022-12-17T00:21:18.705Z,95680.44
2022-12-17T00:24:04.722Z,95694.13
2022-12-17T00:26:50.699Z,95695.31
2022-12-17T00:29:36.749Z,95698.69
2022-12-17T00:32:22.899Z,95702.66
2022-12-17T00:35:09.338Z,95703.25
2022-12-17T00:37:55.199Z,95712.78
2022-12-17T00:40:41.850Z,95719.34
2022-12-17T00:43:31.018Z,95721.13
2022-12-17T00:46:17.497Z,95710.22
2022-12-17T00:49:03.448Z,95712.97
2022-12-17T00:51:49.479Z,95729.69
2022-12-17T00:54:35.626Z,95724.13
2022-12-17T00:57:21.166Z,95723.13
2022-12-17T01:00:06.905Z,95726.94
2022-12-17T01:02:52.830Z,95715.00
2022-12-17T01:05:39.499Z,95716.59
2022-12-17T01:08:32.245Z,95716.59
2022-12-17T01:11:23.282Z,95717.38
2022-12-17T01:14:09.764Z,95716.97
2022-12-17T01:16:56.305Z,95725.53
2022-12-17T01:19:42.529Z,95733.09
2022-12-17T01:22:30.679Z,95738.06
2022-12-17T01:25:16.261Z,95735.25
2022-12-17T01:28:01.630Z,95738.06
2022-12-17T01:30:47.521Z,95737.66
2022-12-17T01:33:46.931Z,95732.28
2022-12-17T01:36:32.778Z,95750.56
2022-12-17T01:39:18.458Z,95748.16
2022-12-17T01:42:04.339Z,95758.31
2022-12-17T01:45:08.478Z,95762.84
2022-12-17T01:47:57.184Z,95779.56
2022-12-17T01:50:46.478Z,95776.19
2022-12-17T01:53:34.533Z,95782.94
2022-12-17T01:56:21.001Z,95799.22
2022-12-17T01:59:07.160Z,95803.19
2022-12-17T02:01:53.696Z,95815.09
2022-12-17T02:04:39.720Z,95814.91
2022-12-17T02:07:25.268Z,95819.88
2022-12-17T02:10:29.598Z,95830.59
2022-12-17T02:13:23.699Z,95835.94
2022-12-17T02:16:22.255Z,95837.72
2022-12-17T02:19:20.818Z,95829.31
2022-12-17T02:22:12.819Z,95855.38
2022-12-17T02:25:24.839Z,95853.53
2022-12-17T02:28:11.618Z,95865.22
2022-12-17T02:30:57.838Z,95878.94
2022-12-17T02:33:43.799Z,95870.59
2022-12-17T02:36:34.378Z,95880.56
2022-12-17T02:39:20.300Z,95882.34
2022-12-17T02:42:11.700Z,95886.53
2022-12-17T02:44:59.720Z,95888.50
2022-12-17T02:47:47.381Z,95892.06
2022-12-17T02:50:33.688Z,95882.94
2022-12-17T02:53:22.039Z,95895.63
2022-12-17T02:56:07.319Z,95893.03
2022-12-17T02:58:55.839Z,95896.22
2022-12-17T03:01:41.606Z,95894.44
2022-12-17T03:04:27.100Z,95894.28
2022-12-17T03:07:12.704Z,95899.25
2022-12-17T03:09:58.421Z,95903.03
2022-12-17T03:12:44.258Z,95897.06
2022-12-17T03:15:30.100Z,95903.81
2022-12-17T03:18:15.840Z,95911.56
2022-12-17T03:21:01.459Z,95923.09
2022-12-17T03:23:47.306Z,95910.41
2022-12-17T03:26:32.908Z,95918.56
2022-12-17T03:29:18.658Z,95927.53
2022-12-17T03:32:04.378Z,95928.50
2022-12-17T03:34:50.238Z,95933.66
2022-12-17T03:37:35.940Z,95928.88
2022-12-17T03:40:21.672Z,95935.03
2022-12-17T03:43:07.540Z,95937.41
2022-12-17T03:45:53.286Z,95941.78
2022-12-17T03:48:39.100Z,95939.38
2022-12-17T03:51:24.940Z,95947.94
2022-12-17T03:54:10.625Z,95950.16
2022-12-17T03:56:56.470Z,95950.75
2022-12-17T03:59:42.047Z,95959.09
2022-12-17T04:02:27.995Z,95960.50
2022-12-17T04:05:18.310Z,95968.06
2022-12-17T04:08:05.953Z,95970.66
2022-12-17T04:10:51.249Z,95974.84
2022-12-17T04:13:40.761Z,95974.44
2022-12-17T04:16:27.759Z,95978.63
2022-12-17T04:19:13.379Z,95981.19
2022-12-17T04:21:59.120Z,95982.00
2022-12-17T04:24:44.700Z,95979.41
2022-12-17T04:27:30.123Z,95983.16
2022-12-17T04:30:15.706Z,96001.06
2022-12-17T04:33:01.049Z,96003.44
2022-12-17T04:35:46.778Z,96002.63
2022-12-17T04:38:32.319Z,96001.25
2022-12-17T04:41:17.898Z,96002.44
2022-12-17T04:44:03.792Z,96006.41
2022-12-17T04:46:49.458Z,96011.56
2022-12-17T04:49:35.088Z,96009.78
2022-12-17T04:52:20.782Z,96009.38
2022-12-17T04:55:06.157Z,96021.50
2022-12-17T04:57:52.389Z,96021.47
2022-12-17T05:00:38.399Z,96027.22
2022-12-17T05:03:31.889Z,96029.41
2022-12-17T05:06:18.538Z,96037.13
2022-12-17T05:09:04.338Z,96032.59
2022-12-17T05:11:50.001Z,96034.53
2022-12-17T05:14:36.160Z,96030.34
2022-12-17T05:17:21.724Z,96023.53
2022-12-17T05:20:07.574Z,96032.69
2022-12-17T05:22:53.575Z,96027.84
2022-12-17T05:25:39.212Z,96035.63
2022-12-17T05:28:24.750Z,96051.97
2022-12-17T05:31:12.114Z,96057.13
2022-12-17T05:33:58.173Z,96063.97
2022-12-17T05:36:44.219Z,96064.84
2022-12-17T05:39:29.900Z,96081.25
2022-12-17T05:42:15.538Z,96084.69
2022-12-17T05:45:01.255Z,96096.00
2022-12-17T05:47:46.976Z,96101.78
2022-12-17T05:50:32.935Z,96108.72
2022-12-17T05:53:23.735Z,96099.81
2022-12-17T05:56:11.661Z,96096.84
2022-12-17T05:58:58.337Z,96104.59
2022-12-17T06:01:44.157Z,96116.34
2022-12-17T06:04:30.292Z,96138.78
2022-12-17T06:07:15.814Z,96141.06
2022-12-17T06:10:01.334Z,96143.06
2022-12-17T06:12:46.894Z,96142.91
2022-12-17T06:15:32.740Z,96151.06
2022-12-17T06:18:18.414Z,96153.47
2022-12-17T06:21:04.980Z,96159.44
2022-12-17T06:23:50.417Z,96159.78
2022-12-17T06:26:36.013Z,96163.38
2022-12-17T06:29:21.817Z,96168.53
2022-12-17T06:32:07.693Z,96169.53
2022-12-17T06:34:53.173Z,96173.31
2022-12-17T06:37:39.175Z,96169.53
2022-12-17T06:40:25.261Z,96177.25
2022-12-17T06:43:12.856Z,96194.53
2022-12-17T06:45:59.138Z,96198.72
2022-12-17T06:48:44.814Z,96201.09
2022-12-17T06:51:30.373Z,96204.13
2022-12-17T06:54:16.052Z,96214.81
2022-12-17T06:57:01.575Z,96224.53
2022-12-17T06:59:54.974Z,96233.09
2022-12-17T07:02:40.820Z,96233.25
2022-12-17T07:05:26.496Z,96246.00
2022-12-17T07:08:18.896Z,96254.78
2022-12-17T07:11:05.018Z,96255.69
2022-12-17T07:13:50.586Z,96256.13
2022-12-17T07:16:36.287Z,96262.72
2022-12-17T07:19:27.003Z,96278.19
2022-12-17T07:22:13.144Z,96273.03
2022-12-17T07:24:58.815Z,96276.59
2022-12-17T07:27:44.373Z,96275.25
2022-12-17T07:30:31.172Z,96278.63
2022-12-17T07:33:22.053Z,96288.59
2022-12-17T07:36:08.180Z,96278.25
2022-12-17T07:38:54.053Z,96290.63
2022-12-17T07:41:39.792Z,96282.53
2022-12-17T07:44:25.175Z,96293.81
2022-12-17T07:47:10.788Z,96300.41
2022-12-17T07:49:56.620Z,96300.78
2022-12-17T07:52:42.053Z,96302.19
2022-12-17T07:55:28.654Z,96312.78
2022-12-17T07:58:22.573Z,96310.19
2022-12-17T08:01:08.339Z,96329.06
2022-12-17T08:04:13.860Z,96341.66
2022-12-17T08:07:04.098Z,96346.53
2022-12-17T08:09:52.853Z,96347.59
2022-12-17T08:12:38.972Z,96357.13
2022-12-17T08:15:24.892Z,96358.81
2022-12-17T08:18:10.934Z,96369.31
2022-12-17T08:20:56.415Z,96368.53
2022-12-17T08:23:41.901Z,96384.13
2022-12-17T08:26:27.495Z,96391.25
2022-12-17T08:29:13.252Z,96383.94
2022-12-17T08:31:59.133Z,96380.09
2022-12-17T08:34:44.654Z,96376.56
2022-12-17T08:37:30.332Z,96375.41
2022-12-17T08:40:16.454Z,96395.25
2022-12-17T08:43:02.073Z,96400.25
2022-12-17T08:45:47.818Z,96403.97
2022-12-17T08:48:33.697Z,96409.59
2022-12-17T08:51:19.333Z,96418.75
2022-12-17T08:54:09.734Z,96426.34
2022-12-17T08:56:55.666Z,96436.66
2022-12-17T08:59:42.857Z,96435.97
2022-12-17T09:02:29.225Z,96437.38
2022-12-17T09:05:15.134Z,96458.69
2022-12-17T09:08:06.787Z,96462.16
2022-12-17T09:10:52.495Z,96465.81
2022-12-17T09:13:38.846Z,96461.06
2022-12-17T09:16:25.281Z,96461.69
2022-12-17T09:19:10.974Z,96472.50
2022-12-17T09:21:56.584Z,96468.72
2022-12-17T09:24:42.133Z,96473.09
2022-12-17T09:27:27.693Z,96485.03
2022-12-17T09:30:13.654Z,96484.06
2022-12-17T09:32:59.533Z,96487.63
2022-12-17T09:35:45.220Z,96491.38
2022-12-17T09:38:32.382Z,96497.69
2022-12-17T09:41:48.575Z,96497.34
2022-12-17T09:44:44.294Z,96496.53
2022-12-17T09:47:45.135Z,96503.13
2022-12-17T09:50:35.470Z,96501.16
2022-12-17T09:53:28.148Z,96499.47
2022-12-17T09:56:13.856Z,96513.00
2022-12-17T09:58:59.734Z,96512.38
2022-12-17T10:01:53.590Z,96517.47
2022-12-17T10:04:48.536Z,96518.63
2022-12-17T10:07:39.614Z,96525.03
2022-12-17T10:10:43.934Z,96524.41
2022-12-17T10:13:34.597Z,96529.66
2022-12-17T10:16:20.947Z,96529.03
2022-12-17T10:19:08.855Z,96535.81
2022-12-17T10:21:56.983Z,96544.03
2022-12-17T10:24:42.700Z,96529.94
2022-12-17T10:27:30.372Z,96540.63
2022-12-17T10:30:20.452Z,96546.22
2022-12-17T10:33:14.932Z,96561.75
2022-12-17T10:36:00.573Z,96565.41
2022-12-17T10:38:48.981Z,96560.25
2022-12-17T10:41:46.853Z,96567.00
2022-12-17T10:44:52.974Z,96566.31
2022-12-17T10:47:44.575Z,96564.97
2022-12-17T10:50:31.654Z,96573.16
2022-12-17T10:53:18.773Z,96577.97
2022-12-17T10:56:15.653Z,96572.06
2022-12-17T10:59:08.174Z,96579.03
2022-12-17T11:01:56.598Z,96581.69
2022-12-17T11:04:46.053Z,96574.81
2022-12-17T11:07:42.132Z,96569.38
2022-12-17T11:10:47.621Z,96583.75
2022-12-17T11:13:41.532Z,96587.19
2022-12-17T11:16:47.056Z,96591.41
2022-12-17T11:19:41.292Z,96586.41
2022-12-17T11:22:42.174Z,96598.53
2022-12-17T11:25:45.096Z,96595.59
2022-12-17T11:28:42.941Z,96600.22
2022-12-17T11:31:45.959Z,96607.63
2022-12-17T11:34:46.773Z,96612.50
2022-12-17T11:37:32.694Z,96610.19
2022-12-17T11:40:44.693Z,96615.84
2022-12-17T11:43:47.980Z,96627.09
2022-12-17T11:46:58.202Z,96631.72
2022-12-17T11:50:16.221Z,96628.75
2022-12-17T11:53:49.575Z,96614.09
2022-12-17T11:56:57.137Z,96622.09
2022-12-17T11:59:53.230Z,96623.34
2022-12-17T12:13:48.761Z,96634.25
2022-12-17T12:16:56.004Z,96641.81
2022-12-17T12:19:53.372Z,96637.03
2022-12-17T12:22:59.017Z,96634.22
2022-12-17T12:25:50.772Z,96633.25
2022-12-17T12:29:30.146Z,96630.25
2022-12-17T12:32:18.540Z,96636.06
2022-12-17T12:35:04.773Z,96634.22
2022-12-17T12:37:51.532Z,96632.78
2022-12-17T12:40:39.941Z,96636.13
2022-12-17T12:43:40.300Z,96632.25
2022-12-17T12:46:37.052Z,96632.06
2022-12-17T12:49:47.416Z,96641.44
2022-12-17T12:52:39.455Z,96642.41
2022-12-17T12:55:25.773Z,96645.19
2022-12-17T12:58:43.014Z,96649.63
2022-12-17T13:01:29.572Z,96642.44
2022-12-17T13:04:18.016Z,96652.16
2022-12-17T13:06:46.983Z,96668.88
2022-12-17T13:09:17.734Z,96660.94
2022-12-17T13:11:48.536Z,96670.41
2022-12-17T13:14:37.017Z,96678.56
2022-12-17T13:17:23.135Z,96670.75
2022-12-17T13:20:00.942Z,96675.69
2022-12-17T13:22:29.868Z,96682.66
2022-12-17T13:25:18.054Z,96679.13
2022-12-17T13:27:45.822Z,96684.75
2022-12-17T13:30:18.936Z,96690.06
2022-12-17T13:33:27.815Z,96695.56
2022-12-17T13:36:00.612Z,96708.94
2022-12-17T13:38:52.134Z,96712.16
2022-12-17T13:41:22.573Z,96720.81
2022-12-17T13:43:52.738Z,96720.50
2022-12-17T13:46:22.675Z,96726.03
2022-12-17T13:48:58.052Z,96739.13
2022-12-17T13:51:30.939Z,96735.88
2022-12-17T13:54:00.577Z,96740.22
2022-12-17T13:56:29.237Z,96741.47
2022-12-17T13:58:59.270Z,96746.09
2022-12-17T14:01:30.448Z,96747.06
2022-12-17T14:04:07.597Z,96754.34
2022-12-17T14:06:38.058Z,96759.47
2022-12-17T14:09:06.452Z,96754.16
2022-12-17T14:11:52.554Z,96766.25
2022-12-17T14:14:40.615Z,96766.38
2022-12-17T14:17:15.527Z,96769.25
2022-12-17T14:19:42.853Z,96784.09
2022-12-17T14:22:25.092Z,96782.56
2022-12-17T14:24:52.381Z,96784.81
2022-12-17T14:27:27.300Z,96785.81
2022-12-17T14:29:54.533Z,96788.50
2022-12-17T14:32:36.178Z,96793.13
2022-12-17T14:35:04.372Z,96793.06
2022-12-17T14:37:31.866Z,96803.88
2022-12-17T14:40:05.575Z,96805.94
2022-12-17T14:42:37.096Z,96807.38
2022-12-17T14:45:23.414Z,96814.00
2022-12-17T14:48:04.575Z,96820.06
2022-12-17T14:50:37.092Z,96823.72
2022-12-17T14:53:25.900Z,96827.75
2022-12-17T14:55:59.051Z,96836.88
2022-12-17T14:58:27.932Z,96844.13
2022-12-17T15:01:11.703Z,96847.28
2022-12-17T15:03:46.479Z,96855.94
2022-12-17T15:06:18.657Z,96858.69
2022-12-17T15:08:48.452Z,96869.72
2022-12-17T15:11:19.493Z,96872.97
2022-12-17T15:13:49.247Z,96880.59
2022-12-17T15:16:20.139Z,96881.94
2022-12-17T15:18:47.422Z,96892.84
2022-12-17T15:21:15.258Z,96887.75
2022-12-17T15:23:45.218Z,96893.41
2022-12-17T15:26:14.217Z,96902.41
2022-12-17T15:28:44.853Z,96907.31
2022-12-17T15:31:13.721Z,96906.06
2022-12-17T15:33:41.981Z,96915.59
2022-12-17T15:36:13.532Z,96923.84
2022-12-17T15:38:41.068Z,96923.50
2022-12-17T15:41:26.937Z,96922.84
2022-12-17T15:43:54.133Z,96924.31
2022-12-17T15:46:21.311Z,96923.66
2022-12-17T15:48:50.834Z,96927.06
2022-12-17T15:51:21.226Z,96937.38
2022-12-17T15:53:48.693Z,96943.19
2022-12-17T15:56:24.535Z,96945.63
2022-12-17T15:58:52.504Z,96952.25
2022-12-17T16:01:20.536Z,96947.38
2022-12-17T16:03:47.745Z,96947.06
2022-12-17T16:06:15.144Z,96960.28
2022-12-17T16:08:42.947Z,96965.09
2022-12-17T16:11:12.614Z,96968.81
2022-12-17T16:13:40.179Z,96967.84
2022-12-17T16:16:08.215Z,96975.25
2022-12-17T16:18:36.261Z,96976.38
2022-12-17T16:21:04.663Z,96978.94
2022-12-17T16:23:31.733Z,96986.16
2022-12-17T16:26:00.814Z,96991.44
2022-12-17T16:28:28.978Z,96996.91
2022-12-17T16:31:05.140Z,96996.06
2022-12-17T16:33:38.296Z,97007.00
2022-12-17T16:36:07.655Z,97005.84
2022-12-17T16:38:36.354Z,97019.34
2022-12-17T16:41:04.022Z,97018.03
2022-12-17T16:43:34.297Z,97020.09
2022-12-17T16:46:03.152Z,97019.59
2022-12-17T16:48:37.910Z,97024.75
2022-12-17T16:51:21.085Z,97040.34
2022-12-17T16:53:53.336Z,97035.00
2022-12-17T16:56:25.972Z,97033.56
2022-12-17T16:58:53.413Z,97040.47
2022-12-17T17:01:22.891Z,97042.66
2022-12-17T17:03:50.582Z,97048.13
2022-12-17T17:06:19.013Z,97047.63
2022-12-17T17:08:46.972Z,97053.09
2022-12-17T17:11:17.057Z,97046.47
2022-12-17T17:13:44.261Z,97049.97
2022-12-17T17:16:12.523Z,97058.66
2022-12-17T17:18:40.309Z,97057.00
2022-12-17T17:21:15.654Z,97074.72
2022-12-17T17:23:43.253Z,97076.63
2022-12-17T17:26:11.013Z,97075.81
2022-12-17T17:28:39.063Z,97093.69
2022-12-17T17:31:08.947Z,97086.91
2022-12-17T17:33:38.894Z,97088.53
2022-12-17T17:36:07.454Z,97096.56
2022-12-17T17:38:36.401Z,97105.91
2022-12-17T17:41:05.015Z,97103.91
2022-12-17T17:43:32.973Z,97109.63
2022-12-17T17:46:06.454Z,97103.19
2022-12-17T17:48:34.568Z,97105.22
2022-12-17T17:51:05.454Z,97104.34
2022-12-17T17:53:32.694Z,97110.44
2022-12-17T17:56:08.013Z,97104.03
2022-12-17T17:58:36.077Z,97107.84
2022-12-17T18:01:11.620Z,97110.25
2022-12-17T18:03:39.047Z,97106.50
2022-12-17T18:06:08.091Z,97121.13
2022-12-17T18:08:37.404Z,97126.94
2022-12-17T18:11:06.975Z,97123.16
2022-12-17T18:13:53.617Z,97118.84
2022-12-17T18:16:23.645Z,97132.50
2022-12-17T18:18:51.335Z,97130.25
2022-12-17T18:21:20.383Z,97138.63
2022-12-17T18:23:48.332Z,97149.00
2022-12-17T18:26:19.134Z,97146.81
2022-12-17T18:28:47.896Z,97143.81
2022-12-17T18:31:18.443Z,97162.38
2022-12-17T18:33:48.173Z,97158.44
2022-12-17T18:36:21.332Z,97164.16
2022-12-17T18:38:54.895Z,97161.41
2022-12-17T18:41:40.576Z,97168.00
2022-12-17T18:44:08.295Z,97167.72
2022-12-17T18:46:35.694Z,97169.50
2022-12-17T18:49:06.173Z,97175.16
2022-12-17T18:51:35.177Z,97181.53
2022-12-17T18:54:03.414Z,97180.59
2022-12-17T18:56:59.556Z,97191.31
2022-12-17T18:59:24.193Z,97188.88
2022-12-17T19:01:56.777Z,97192.66
2022-12-17T19:04:24.907Z,97194.59
2022-12-17T19:06:53.832Z,97193.25
2022-12-17T19:09:36.388Z,97196.50
2022-12-17T19:12:06.698Z,97193.91
2022-12-17T19:14:34.972Z,97205.16
2022-12-17T19:17:02.175Z,97208.41
2022-12-17T19:19:29.583Z,97202.44
2022-12-17T19:21:58.934Z,97211.09
2022-12-17T19:24:26.296Z,97212.19
2022-12-17T19:26:53.692Z,97222.47
2022-12-17T19:29:21.621Z,97227.22
2022-12-17T19:31:49.605Z,97219.13
2022-12-17T19:34:17.316Z,97233.19
2022-12-17T19:36:46.390Z,97227.69
2022-12-17T19:39:19.493Z,97233.38
2022-12-17T19:41:47.019Z,97234.59
2022-12-17T19:44:16.140Z,97243.66
2022-12-17T19:46:44.376Z,97237.84
2022-12-17T19:49:15.027Z,97239.63
2022-12-17T19:51:44.697Z,97241.53
2022-12-17T19:54:15.590Z,97246.25
2022-12-17T19:56:45.118Z,97238.16
2022-12-17T19:59:13.378Z,97242.63
2022-12-17T20:01:42.305Z,97244.53
2022-12-17T20:04:11.965Z,97254.13
2022-12-17T20:06:39.622Z,97254.25
2022-12-17T20:09:07.097Z,97262.78
2022-12-17T20:11:35.933Z,97264.25
2022-12-17T20:14:10.266Z,97266.84
2022-12-17T20:16:43.373Z,97273.97
2022-12-17T20:19:22.278Z,97279.00
2022-12-17T20:21:50.575Z,97274.53
2022-12-17T20:24:18.704Z,97281.72
2022-12-17T20:26:46.292Z,97285.34
2022-12-17T20:29:13.621Z,97295.63
2022-12-17T20:31:45.431Z,97299.38
2022-12-17T20:34:16.655Z,97297.66
2022-12-17T20:36:44.734Z,97301.16
2022-12-17T20:39:12.693Z,97311.03
2022-12-17T20:41:40.652Z,97298.69
2022-12-17T20:44:13.705Z,97303.84
2022-12-17T20:46:42.142Z,97309.50
2022-12-17T20:49:11.986Z,97310.97
2022-12-17T20:51:39.413Z,97310.41
2022-12-17T20:54:08.735Z,97303.25
2022-12-17T20:56:36.734Z,97301.88
2022-12-17T20:59:09.295Z,97308.09
2022-12-17T21:01:37.669Z,97320.78
2022-12-17T21:04:07.710Z,97317.25
2022-12-17T21:06:40.474Z,97323.22
2022-12-17T21:09:08.453Z,97330.53
2022-12-17T21:11:37.458Z,97328.09
2022-12-17T21:14:09.269Z,97329.72
2022-12-17T21:16:39.143Z,97339.97
2022-12-17T21:19:08.929Z,97345.19
2022-12-17T21:21:38.053Z,97343.56
2022-12-17T21:24:06.456Z,97352.88
2022-12-17T21:26:36.817Z,97347.28
2022-12-17T21:29:06.351Z,97340.69
2022-12-17T21:31:38.187Z,97346.19
2022-12-17T21:34:07.214Z,97355.09
2022-12-17T21:36:35.542Z,97353.34
2022-12-17T21:39:08.700Z,97361.84
2022-12-17T21:41:40.308Z,97368.84
2022-12-17T21:44:15.298Z,97373.16
2022-12-17T21:46:43.367Z,97364.66
2022-12-17T21:49:11.456Z,97372.34
2022-12-17T21:51:38.822Z,97377.75
2022-12-17T21:54:08.629Z,97388.00
2022-12-17T21:56:36.893Z,97390.56
2022-12-17T21:59:04.460Z,97391.50
2022-12-17T22:01:34.392Z,97397.44
2022-12-17T22:04:03.684Z,97399.72
2022-12-17T22:06:36.933Z,97397.03
2022-12-17T22:09:13.976Z,97397.03
2022-12-17T22:12:15.533Z,97406.47
2022-12-17T22:14:42.933Z,97405.44
2022-12-17T22:17:10.175Z,97403.91
2022-12-17T22:19:37.413Z,97400.66
2022-12-17T22:22:04.655Z,97405.53
2022-12-17T22:24:36.211Z,97405.44
2022-12-17T22:27:08.462Z,97404.63
2022-12-17T22:29:55.912Z,97408.63
2022-12-17T22:32:41.577Z,97411.19
2022-12-17T22:36:19.455Z,97409.69
2022-12-17T22:41:45.021Z,97406.19
2022-12-17T22:44:29.476Z,97414.69
2022-12-17T22:44:31.216Z,97407.34
2022-12-17T22:46:19.730Z,97411.19
2022-12-17T22:48:47.462Z,97405.94
2022-12-17T22:51:18.727Z,97415.38
2022-12-17T22:53:53.307Z,97411.19
2022-12-17T22:56:30.679Z,97409.78
2022-12-17T22:59:08.733Z,97408.31
2022-12-17T23:01:35.965Z,97410.41
2022-12-17T23:04:04.075Z,97404.63
2022-12-17T23:06:31.252Z,97419.44
2022-12-17T23:08:59.386Z,97422.22
2022-12-17T23:11:28.336Z,97422.88
2022-12-17T23:13:56.413Z,97424.75
2022-12-17T23:16:24.008Z,97426.06
2022-12-17T23:18:52.337Z,97427.94
2022-12-17T23:21:25.333Z,97430.06
2022-12-17T23:23:54.375Z,97433.66
2022-12-17T23:26:30.896Z,97432.97
2022-12-17T23:28:59.974Z,97430.91
2022-12-17T23:31:29.225Z,97425.88
2022-12-17T23:33:56.933Z,97434.50
2022-12-17T23:36:26.014Z,97435.31
2022-12-17T23:38:55.674Z,97434.75
2022-12-17T23:41:26.053Z,97429.31
2022-12-17T23:43:53.933Z,97438.75
2022-12-17T23:46:22.040Z,97443.75
2022-12-17T23:48:49.372Z,97444.44
2022-12-17T23:51:20.915Z,97445.34
2022-12-17T23:53:48.777Z,97444.44
2022-12-17T23:56:19.492Z,97448.63
2022-12-17T23:58:48.414Z,97447.09
